Terminal Aerodrome Forecast
Issued by NWS

Home | Current Version | Previous Version | Text Only | Print | Product List | Glossary On
Versions: 1 2 3 4 5 6 7 8 9 10 11 12 13 14 15 16 17 18
000
FTUS42 KMHX 282323
TAFISO
TAF
KISO 282323Z 2900/2924 03005KT P6SM VCTS BKN050CB
     FM290200 VRB03KT 5SM BR BKN025
     FM290600 00000KT 2SM BR BKN003
     FM291300 03007KT P6SM VCSH BKN050
      AMD LTD TO CLD VIS AND WIND=

USA.gov is the U.S. government's official web portal to all federal, state and local government web resources and services.